Time;durP1;ratioP1;P1;durP2;ratioP2;P2;SDS_P1;SDS_P2;PMS_P1;PMS_P2;Temp;Humidity;BMP_temperature;BMP_pressure;BME280_temperature;BME280_humidity;BME280_pressure;Samples;Min_cycle;Max_cycle;Signal;HPM_P1;HPM_P2
2021/03/05 00:00:07;;;;;;;24.85;14.55;;;;;;;0.87;61.47;93448.59;5082853;28;20401;-51
2021/03/05 00:02:32;;;;;;;28.48;14.95;;;;;;;0.95;61.75;93449.63;5073003;28;20516;-53
2021/03/05 00:04:58;;;;;;;27.40;15.02;;;;;;;1.04;61.23;93455.59;5068954;28;20043;-55
2021/03/05 00:07:23;;;;;;;24.70;14.90;;;;;;;1.01;61.03;93453.84;5077612;28;20420;-53
2021/03/05 00:09:48;;;;;;;23.08;13.52;;;;;;;1.12;60.29;93450.44;5090582;28;20393;-55
2021/03/05 00:12:14;;;;;;;27.88;16.52;;;;;;;1.23;61.88;93453.22;5090385;28;20032;-52
2021/03/05 00:14:40;;;;;;;43.15;20.17;;;;;;;1.36;59.90;93443.38;5090305;28;20042;-49
2021/03/05 00:17:05;;;;;;;48.10;26.10;;;;;;;1.24;59.78;93444.56;5090375;28;20028;-50
2021/03/05 00:19:31;;;;;;;43.67;23.05;;;;;;;1.33;59.92;93436.19;5090112;28;20502;-49
2021/03/05 00:21:56;;;;;;;37.58;18.90;;;;;;;1.10;60.48;93437.34;5090114;28;20089;-51
2021/03/05 00:24:22;;;;;;;55.20;25.08;;;;;;;1.20;60.19;93435.91;5090047;28;20031;-54
2021/03/05 00:26:47;;;;;;;44.08;20.23;;;;;;;1.23;59.95;93426.03;5089986;28;20059;-47
2021/03/05 00:29:13;;;;;;;39.33;20.95;;;;;;;1.07;60.36;93422.00;5090124;28;20024;-51
2021/03/05 00:31:38;;;;;;;37.75;20.13;;;;;;;0.91;60.23;93409.06;5090075;28;20465;-48
2021/03/05 00:34:04;;;;;;;39.90;20.70;;;;;;;0.40;62.03;93420.16;5090025;28;20108;-47
2021/03/05 00:36:29;;;;;;;32.05;19.13;;;;;;;0.51;62.01;93426.41;5090031;28;20507;-49
2021/03/05 00:38:55;;;;;;;37.65;20.98;;;;;;;0.50;62.40;93391.56;5089489;28;20136;-59
2021/03/05 00:41:20;;;;;;;36.55;18.40;;;;;;;0.70;62.32;93415.88;5090056;28;20027;-58
2021/03/05 00:43:46;;;;;;;34.00;19.02;;;;;;;0.77;61.92;93421.63;5092004;28;20055;-55
2021/03/05 00:46:11;;;;;;;25.75;13.55;;;;;;;0.75;61.33;93415.19;5093734;28;20030;-58
2021/03/05 00:48:36;;;;;;;25.90;14.70;;;;;;;0.76;61.42;93406.53;5093596;28;20030;-57
2021/03/05 00:51:02;;;;;;;42.17;21.15;;;;;;;0.65;61.86;93397.59;5093448;28;20028;-56
2021/03/05 00:53:28;;;;;;;40.67;19.15;;;;;;;0.53;62.74;93401.47;5093658;28;20119;-57
2021/03/05 00:55:55;;;;;;;41.13;20.70;;;;;;;0.56;62.81;93398.50;5093458;28;20420;-51
2021/03/05 00:58:20;;;;;;;37.53;19.25;;;;;;;0.54;62.53;93405.69;5093416;28;20571;-54
2021/03/05 01:00:46;;;;;;;38.10;18.55;;;;;;;0.51;62.40;93403.94;5093468;28;20099;-55
2021/03/05 01:03:11;;;;;;;37.75;18.00;;;;;;;0.52;62.09;93406.16;5093423;28;20051;-55
2021/03/05 01:05:37;;;;;;;36.60;18.80;;;;;;;0.49;62.43;93398.97;5086168;28;20033;-54
2021/03/05 01:08:03;;;;;;;41.97;20.17;;;;;;;0.57;62.18;93394.56;5085944;28;20511;-51
2021/03/05 01:10:28;;;;;;;34.15;17.25;;;;;;;0.35;62.92;93401.84;5091398;28;20028;-53
2021/03/05 01:12:54;;;;;;;30.17;15.10;;;;;;;0.28;62.41;93399.59;5072946;28;20093;-55
2021/03/05 01:15:19;;;;;;;30.98;14.27;;;;;;;0.27;62.77;93390.69;5072868;28;20068;-53
2021/03/05 01:17:45;;;;;;;19.45;12.57;;;;;;;0.33;61.59;93398.88;5072931;28;20127;-55
2021/03/05 01:20:14;;;;;;;19.55;11.60;;;;;;;0.37;61.79;93391.25;5083714;28;20070;-56
2021/03/05 01:22:39;;;;;;;21.63;12.20;;;;;;;0.50;61.50;93389.59;5093070;28;20062;-54
2021/03/05 01:25:07;;;;;;;21.05;12.45;;;;;;;0.31;62.32;93385.78;5092973;28;20071;-56
2021/03/05 01:27:34;;;;;;;23.13;12.98;;;;;;;0.37;61.86;93385.81;5093175;28;20028;-56
2021/03/05 01:30:00;;;;;;;15.60;10.13;;;;;;;0.11;62.76;93394.03;5092824;28;20050;-56
2021/03/05 01:32:25;;;;;;;15.50;9.27;;;;;;;-0.13;63.37;93393.63;5092933;28;20039;-53
2021/03/05 01:34:50;;;;;;;19.42;11.38;;;;;;;-0.10;64.20;93385.25;5092827;28;20024;-54
2021/03/05 01:37:16;;;;;;;21.52;10.88;;;;;;;-0.32;64.93;93385.06;5092720;28;20028;-55
2021/03/05 01:39:41;;;;;;;24.20;10.95;;;;;;;-0.13;64.63;93386.19;5092735;28;20027;-54
2021/03/05 01:42:07;;;;;;;22.10;12.63;;;;;;;0.04;63.92;93391.78;5092762;28;20030;-54
2021/03/05 01:44:32;;;;;;;21.58;12.23;;;;;;;0.05;63.58;93384.34;5092674;28;20068;-57
2021/03/05 01:46:58;;;;;;;20.63;11.02;;;;;;;-0.20;62.70;93359.53;5092654;28;20020;-57
2021/03/05 01:49:23;;;;;;;22.00;12.35;;;;;;;-0.01;63.12;93378.91;5092343;28;20023;-56
2021/03/05 01:51:49;;;;;;;20.90;11.90;;;;;;;-0.03;64.32;93390.25;5092746;28;20020;-55
2021/03/05 01:54:14;;;;;;;23.38;11.93;;;;;;;0.07;63.01;93385.38;5092130;28;20032;-56
2021/03/05 01:56:40;;;;;;;17.63;10.00;;;;;;;0.00;62.37;93383.84;5092082;28;20098;-57
2021/03/05 01:59:09;;;;;;;23.83;13.30;;;;;;;-0.14;63.46;93387.44;5092390;28;20028;-51
2021/03/05 02:01:35;;;;;;;21.20;11.73;;;;;;;-0.39;63.62;93379.34;5092237;28;20507;-54
2021/03/05 02:04:02;;;;;;;39.53;17.30;;;;;;;-0.36;63.52;93356.66;5092137;28;20056;-54
2021/03/05 02:06:27;;;;;;;28.25;16.70;;;;;;;-0.52;64.81;93368.84;5092312;28;20478;-51
2021/03/05 02:08:53;;;;;;;22.25;12.50;;;;;;;-0.59;64.57;93373.97;5071906;28;20039;-53
2021/03/05 02:11:20;;;;;;;23.20;13.88;;;;;;;-0.70;65.31;93371.16;5071812;28;20032;-53
2021/03/05 02:13:46;;;;;;;36.90;16.52;;;;;;;-0.92;65.99;93371.66;5071706;28;20030;-53
2021/03/05 02:16:36;;;;;;;40.58;20.58;;;;;;;-0.59;65.07;93384.81;5071807;28;20020;-52
2021/03/05 02:19:23;;;;;;;48.90;23.10;;;;;;;-0.52;64.34;93385.13;5060810;28;20072;-50
2021/03/05 02:22:10;;;;;;;44.47;20.75;;;;;;;-0.47;64.78;93386.41;5070516;28;20024;-51
2021/03/05 02:24:35;;;;;;;47.25;21.85;;;;;;;-0.23;64.58;93382.19;5071585;28;20036;-53
2021/03/05 02:27:30;;;;;;;46.63;19.38;;;;;;;-0.51;64.67;93389.31;5071480;28;20432;-52
2021/03/05 02:30:32;;;;;;;40.25;18.08;;;;;;;-0.52;65.01;93389.81;5070400;28;20036;-54
2021/03/05 02:33:06;;;;;;;34.35;17.65;;;;;;;-0.51;64.21;93388.56;5071340;28;20501;-55
2021/03/05 02:35:32;;;;;;;38.40;18.42;;;;;;;-0.47;64.02;93398.00;5070308;28;20037;-46
2021/03/05 02:38:02;;;;;;;35.55;18.92;;;;;;;-0.76;65.04;93390.06;5069925;28;20098;-49
2021/03/05 02:40:31;;;;;;;42.72;19.73;;;;;;;-0.61;64.89;93393.44;5071487;28;20103;-49
2021/03/05 02:43:00;;;;;;;30.58;18.52;;;;;;;-0.80;65.59;93394.94;5070241;28;20386;-48
2021/03/05 02:45:29;;;;;;;33.20;17.02;;;;;;;-0.73;64.89;93383.69;5070032;28;20032;-49
2021/03/05 02:47:59;;;;;;;34.65;16.55;;;;;;;-0.52;64.18;93390.53;5071312;28;20055;-49
2021/03/05 02:50:26;;;;;;;31.08;16.92;;;;;;;-0.65;64.98;93379.31;5069663;28;20024;-50
2021/03/05 02:52:52;;;;;;;39.85;19.48;;;;;;;-0.62;64.90;93383.03;5069784;28;20502;-47
2021/03/05 02:55:18;;;;;;;60.20;25.48;;;;;;;-0.88;66.04;93391.91;5069826;28;20504;-50
2021/03/05 02:57:45;;;;;;;43.50;21.05;;;;;;;-0.81;64.57;93379.91;5069691;28;20024;-49
2021/03/05 03:00:16;;;;;;;37.28;16.33;;;;;;;-0.91;64.79;93382.00;5070978;28;20535;-48
2021/03/05 03:02:42;;;;;;;31.63;17.13;;;;;;;-1.00;64.80;93376.75;5069668;28;20055;-50
2021/03/05 03:05:10;;;;;;;27.55;14.63;;;;;;;-1.11;65.13;93376.63;5070847;28;20074;-51
2021/03/05 03:07:36;;;;;;;22.15;12.35;;;;;;;-1.25;65.96;93392.94;5079278;28;20024;-49
2021/03/05 03:10:04;;;;;;;14.07;8.18;;;;;;;-1.35;66.02;93386.19;5089990;28;20020;-48
2021/03/05 03:12:30;;;;;;;12.75;7.28;;;;;;;-1.07;65.58;93389.97;5091113;28;20020;-48
2021/03/05 03:14:56;;;;;;;20.00;8.45;;;;;;;-1.12;65.40;93385.97;5090954;28;20577;-52
2021/03/05 03:17:22;;;;;;;16.25;9.25;;;;;;;-1.21;66.66;93388.81;5091071;28;20020;-52
2021/03/05 03:19:50;;;;;;;20.20;8.90;;;;;;;-0.95;65.34;93402.41;5090942;28;20062;-47
2021/03/05 03:22:17;;;;;;;19.98;9.57;;;;;;;-0.94;64.82;93391.13;5089784;28;20428;-49
2021/03/05 03:24:43;;;;;;;17.95;9.52;;;;;;;-1.01;64.74;93393.47;5090726;28;20016;-51
2021/03/05 03:27:09;;;;;;;22.00;10.77;;;;;;;-1.10;64.69;93382.78;5090680;28;20027;-49
2021/03/05 03:29:35;;;;;;;18.08;9.93;;;;;;;-1.15;65.64;93388.91;5090656;28;20020;-50
2021/03/05 03:32:00;;;;;;;20.25;10.40;;;;;;;-0.96;65.15;93393.56;5090593;28;20040;-50
2021/03/05 03:34:26;;;;;;;17.73;9.63;;;;;;;-0.97;65.28;93392.06;5090367;28;20016;-49
2021/03/05 03:36:51;;;;;;;19.80;10.35;;;;;;;-0.93;65.73;93395.31;5090684;28;20020;-53
2021/03/05 03:39:17;;;;;;;18.75;10.45;;;;;;;-1.09;65.04;93389.69;5090358;28;20119;-50
2021/03/05 03:41:43;;;;;;;21.52;10.13;;;;;;;-1.09;65.64;93387.75;5090506;28;20030;-49
2021/03/05 03:44:11;;;;;;;23.20;10.77;;;;;;;-1.15;65.75;93383.47;5090664;28;20077;-52
2021/03/05 03:46:39;;;;;;;20.90;11.38;;;;;;;-1.00;65.89;93378.72;5090462;28;20032;-48
2021/03/05 03:49:11;;;;;;;22.08;12.68;;;;;;;-0.97;65.20;93385.88;5090269;28;20052;-50
2021/03/05 03:51:41;;;;;;;20.52;10.23;;;;;;;-1.23;65.01;93382.38;5089368;28;20497;-49
2021/03/05 03:54:07;;;;;;;16.10;8.15;;;;;;;-1.46;64.48;93362.44;5090495;28;20020;-54
2021/03/05 03:56:34;;;;;;;14.40;7.57;;;;;;;-1.67;65.79;93388.72;5090420;28;20040;-53
2021/03/05 03:59:00;;;;;;;18.83;9.75;;;;;;;-1.68;66.35;93389.94;5090391;28;20527;-50
2021/03/05 04:01:26;;;;;;;27.75;12.05;;;;;;;-1.75;67.73;93384.94;5089049;28;20058;-49
2021/03/05 04:03:53;;;;;;;21.95;11.32;;;;;;;-1.63;68.23;93392.00;5089204;28;20051;-48
2021/03/05 04:06:23;;;;;;;23.95;12.23;;;;;;;-1.56;67.41;93380.03;5089117;28;20051;-51
2021/03/05 04:08:49;;;;;;;22.88;12.48;;;;;;;-1.64;67.27;93381.63;5069621;28;20025;-49
2021/03/05 04:11:16;;;;;;;48.85;20.88;;;;;;;-1.64;66.96;93382.38;5068852;28;20031;-50
2021/03/05 04:13:41;;;;;;;36.00;16.65;;;;;;;-1.61;66.65;93388.81;5081987;28;20024;-48
2021/03/05 04:16:07;;;;;;;33.75;16.77;;;;;;;-1.57;65.86;93379.28;5089166;28;20560;-48
2021/03/05 04:18:34;;;;;;;37.55;17.05;;;;;;;-1.49;65.21;93378.88;5090817;28;20404;-48
2021/03/05 04:21:21;;;;;;;28.55;17.77;;;;;;;-1.74;66.15;93383.72;5094214;28;20473;-53
2021/03/05 04:23:46;;;;;;;37.45;17.02;;;;;;;-2.12;67.34;93370.38;5093108;28;20389;-53
2021/03/05 04:26:12;;;;;;;36.88;18.95;;;;;;;-2.29;67.40;93372.06;5093946;28;20020;-49
2021/03/05 04:28:37;;;;;;;58.00;25.80;;;;;;;-2.45;69.08;93381.41;5094311;28;20097;-47
2021/03/05 04:31:03;;;;;;;48.85;24.45;;;;;;;-2.57;69.77;93387.09;5093998;28;20024;-49
2021/03/05 04:33:29;;;;;;;40.83;20.67;;;;;;;-2.32;68.82;93391.94;5093936;28;20105;-46
2021/03/05 04:35:54;;;;;;;38.33;17.52;;;;;;;-2.11;68.62;93385.38;5093958;28;20016;-49
2021/03/05 04:38:19;;;;;;;32.22;15.77;;;;;;;-2.07;69.24;93385.94;5093488;28;20040;-50
2021/03/05 04:40:45;;;;;;;33.95;16.40;;;;;;;-2.14;68.46;93370.09;5093993;28;20059;-48
2021/03/05 04:43:10;;;;;;;54.03;25.83;;;;;;;-2.47;68.25;93348.69;5092602;28;20090;-49
2021/03/05 04:45:36;;;;;;;49.03;22.45;;;;;;;-2.33;69.58;93393.91;5093842;28;20016;-50
2021/03/05 04:48:01;;;;;;;46.88;20.90;;;;;;;-2.40;69.92;93390.81;5093740;28;20035;-49
2021/03/05 04:50:27;;;;;;;51.65;21.35;;;;;;;-2.58;69.88;93394.47;5093614;28;20020;-50
2021/03/05 04:52:52;;;;;;;54.63;23.52;;;;;;;-2.53;69.48;93377.59;5093620;28;20024;-50
2021/03/05 04:55:18;;;;;;;49.72;23.10;;;;;;;-2.32;69.00;93398.06;5093544;28;20028;-49
2021/03/05 04:57:43;;;;;;;61.72;29.38;;;;;;;-2.51;69.58;93394.09;5093440;28;20024;-47
2021/03/05 05:00:09;;;;;;;61.25;25.73;;;;;;;-2.43;69.74;93391.75;5093713;28;20020;-49
2021/03/05 05:02:34;;;;;;;50.95;23.25;;;;;;;-2.47;70.36;93394.63;5093586;28;20019;-47
2021/03/05 05:05:03;;;;;;;55.72;23.98;;;;;;;-2.27;69.70;93393.97;5091300;28;20419;-49
2021/03/05 05:07:29;;;;;;;63.40;31.50;;;;;;;-2.40;69.77;93388.88;5081409;28;20020;-48
2021/03/05 05:09:54;;;;;;;63.83;30.70;;;;;;;-2.14;68.79;93399.84;5093127;28;20016;-46
2021/03/05 05:12:20;;;;;;;68.60;31.35;;;;;;;-2.07;68.54;93391.34;5093082;28;20094;-48
2021/03/05 05:14:45;;;;;;;58.35;27.60;;;;;;;-2.03;68.63;93394.59;5093241;28;20023;-46
2021/03/05 05:17:11;;;;;;;66.13;28.88;;;;;;;-1.90;68.19;93408.56;5093189;28;20031;-47
2021/03/05 05:19:36;;;;;;;64.90;32.20;;;;;;;-1.70;66.71;93407.88;5093181;28;20022;-46
2021/03/05 05:22:02;;;;;;;47.05;22.92;;;;;;;-1.76;66.65;93410.50;5093021;28;20024;-49
2021/03/05 05:24:28;;;;;;;45.72;23.63;;;;;;;-1.77;66.76;93408.25;5092783;28;20496;-46
2021/03/05 05:26:53;;;;;;;49.08;23.85;;;;;;;-1.94;67.65;93401.84;5092952;28;20020;-47
2021/03/05 05:29:19;;;;;;;43.10;22.88;;;;;;;-2.04;67.87;93397.78;5092233;28;20024;-49
2021/03/05 05:31:45;;;;;;;71.03;32.75;;;;;;;-1.73;66.92;93414.97;5092703;28;20120;-51
2021/03/05 05:34:11;;;;;;;58.38;28.75;;;;;;;-1.59;66.57;93425.03;5085791;28;20028;-47
2021/03/05 05:36:36;;;;;;;56.58;28.10;;;;;;;-1.39;65.24;93418.13;5072591;28;20027;-48
2021/03/05 05:39:02;;;;;;;61.75;32.90;;;;;;;-1.47;65.50;93419.75;5072262;28;20048;-49
2021/03/05 05:41:28;;;;;;;62.78;30.73;;;;;;;-1.44;66.21;93414.13;5072513;28;20043;-51
2021/03/05 05:43:53;;;;;;;70.35;31.80;;;;;;;-1.21;65.49;93439.56;5072422;28;20104;-47
2021/03/05 05:46:22;;;;;;;64.85;31.88;;;;;;;-1.33;65.94;93419.69;5072422;28;20020;-50
2021/03/05 05:48:48;;;;;;;;;;;;;;;-1.21;66.52;93443.00;5072808;28;20544;-50
2021/03/05 05:51:17;;;;;;;55.40;26.27;;;;;;;-0.96;65.71;93436.16;5072365;28;19919;-46
2021/03/05 05:53:45;;;;;;;49.00;28.63;;;;;;;-0.86;65.60;93445.63;5076295;28;20523;-51
2021/03/05 05:56:13;;;;;;;59.30;34.15;;;;;;;-0.74;66.37;93447.25;5091727;28;20103;-51
2021/03/05 05:58:39;;;;;;;66.57;34.00;;;;;;;-0.66;64.68;93437.50;5091344;28;20787;-48
2021/03/05 06:01:05;;;;;;;34.72;18.85;;;;;;;-0.78;64.38;93419.63;5091328;28;20315;-48
2021/03/05 06:03:31;;;;;;;34.75;17.90;;;;;;;-0.67;64.27;93417.00;5090974;28;20035;-50
2021/03/05 06:05:56;;;;;;;29.15;16.33;;;;;;;-0.49;64.49;93443.06;5091215;28;20028;-47
2021/03/05 06:08:22;;;;;;;37.97;19.88;;;;;;;-0.31;64.64;93440.06;5091306;28;20104;-49
2021/03/05 06:10:48;;;;;;;47.28;24.67;;;;;;;-0.35;64.53;93429.44;5091015;28;20044;-50
2021/03/05 06:13:13;;;;;;;59.97;29.15;;;;;;;-0.11;63.96;93435.31;5089693;28;20081;-49
2021/03/05 06:15:39;;;;;;;45.58;25.60;;;;;;;-0.08;64.30;93437.06;5091003;28;20031;-47
2021/03/05 06:18:05;;;;;;;51.50;27.38;;;;;;;0.09;64.08;93441.91;5090882;28;20024;-48
2021/03/05 06:20:44;;;;;;;50.08;24.38;;;;;;;0.37;64.22;93437.44;5089898;28;20496;-50
2021/03/05 06:23:13;;;;;;;36.85;18.70;;;;;;;1.01;62.09;93439.50;5090935;28;20563;-47
2021/03/05 06:25:39;;;;;;;35.83;19.20;;;;;;;1.88;60.51;93437.56;5088375;28;20016;-49
2021/03/05 06:28:16;;;;;;;56.35;29.60;;;;;;;2.76;58.74;93453.16;5070384;28;20028;-47
2021/03/05 06:30:42;;;;;;;67.53;30.42;;;;;;;3.51;55.09;93433.56;5071598;28;20055;-47
2021/03/05 06:33:30;;;;;;;65.20;35.10;;;;;;;4.66;51.66;93438.03;5089177;28;20059;-49
2021/03/05 06:36:14;;;;;;;50.83;27.80;;;;;;;5.50;48.96;93431.16;5090609;28;20085;-49
2021/03/05 06:38:42;;;;;;;60.67;34.38;;;;;;;6.29;47.20;93431.63;5090429;28;20486;-47
2021/03/05 06:41:15;;;;;;;72.65;37.22;;;;;;;6.95;44.46;93424.31;5090347;28;20464;-52
2021/03/05 06:43:45;;;;;;;58.58;34.38;;;;;;;7.97;42.31;93437.06;5090387;28;20062;-52
2021/03/05 06:46:39;;;;;;;68.97;39.33;;;;;;;8.55;40.68;93436.81;5079078;28;20035;-53
2021/03/05 06:49:10;;;;;;;46.88;27.67;;;;;;;9.28;40.18;93433.72;5070024;28;20017;-51
2021/03/05 06:51:36;;;;;;;45.75;28.00;;;;;;;9.74;38.18;93424.47;5070441;28;20099;-50
2021/03/05 06:54:08;;;;;;;43.53;27.33;;;;;;;11.00;37.65;93427.41;5069789;28;20431;-49
2021/03/05 06:56:35;;;;;;;24.88;15.88;;;;;;;12.19;34.78;93429.81;5070343;28;20024;-48
2021/03/05 06:59:04;;;;;;;29.70;18.60;;;;;;;13.85;32.70;93430.69;5070055;28;20025;-48
2021/03/05 07:01:30;;;;;;;56.17;30.73;;;;;;;15.03;29.74;93406.06;5070110;28;20032;-48
2021/03/05 07:04:13;;;;;;;42.97;26.13;;;;;;;16.00;27.93;93407.78;5070110;28;20058;-55
2021/03/05 07:06:39;;;;;;;46.63;31.45;;;;;;;16.33;26.90;93415.13;5070890;28;20540;-49
2021/03/05 07:09:10;;;;;;;32.10;21.83;;;;;;;17.77;25.96;93421.03;5089912;28;20020;-50
2021/03/05 07:11:40;;;;;;;42.42;27.20;;;;;;;18.78;24.01;93413.66;5090016;28;20488;-50
2021/03/05 07:14:08;;;;;;;38.53;26.77;;;;;;;19.23;23.40;93401.06;5089873;28;20020;-48
2021/03/05 07:16:47;;;;;;;57.55;32.83;;;;;;;20.17;22.44;93416.53;5089918;28;20089;-48
2021/03/05 07:19:20;;;;;;;93.82;50.28;;;;;;;21.17;21.68;93420.78;5090137;28;20027;-50
2021/03/05 07:21:49;;;;;;;68.97;38.92;;;;;;;21.62;20.98;93400.06;5089761;28;20059;-50
2021/03/05 07:24:17;;;;;;;51.90;32.13;;;;;;;21.95;21.17;93415.84;5089474;28;20496;-51
2021/03/05 07:26:44;;;;;;;83.53;45.53;;;;;;;22.50;19.64;93412.31;5089794;28;20832;-51
2021/03/05 07:29:24;;;;;;;60.47;31.95;;;;;;;22.53;19.58;93410.34;5088364;28;20094;-49
2021/03/05 07:32:03;;;;;;;39.55;25.85;;;;;;;23.27;19.65;93396.31;5089552;28;20630;-51
2021/03/05 07:34:32;;;;;;;17.58;12.63;;;;;;;23.15;18.22;93409.84;5089921;28;20436;-54
2021/03/05 07:37:00;;;;;;;17.40;11.32;;;;;;;22.14;19.86;93423.84;5089577;28;20051;-51
2021/03/05 07:39:29;;;;;;;27.70;22.60;;;;;;;22.84;18.83;93404.13;5089120;28;20048;-53
2021/03/05 07:41:55;;;;;;;20.40;14.82;;;;;;;22.80;18.60;93413.13;5088445;28;20024;-55
2021/03/05 07:44:21;;;;;;;22.58;15.05;;;;;;;23.98;19.14;93406.63;5089594;28;20398;-53
2021/03/05 07:46:47;;;;;;;15.98;10.73;;;;;;;24.96;17.72;93417.09;5089551;28;20039;-50
2021/03/05 07:49:13;;;;;;;13.40;8.70;;;;;;;25.38;17.08;93415.97;5089270;28;20527;-47
2021/03/05 07:51:39;;;;;;;17.90;13.05;;;;;;;25.91;14.96;93410.19;5088069;28;20492;-50
2021/03/05 07:54:05;;;;;;;13.75;10.70;;;;;;;26.19;14.20;93409.13;5087627;28;20412;-48
2021/03/05 07:56:50;;;;;;;14.80;10.13;;;;;;;26.56;14.58;93405.47;5088704;28;20024;-54
2021/03/05 07:59:37;;;;;;;11.90;6.75;;;;;;;26.06;13.41;93403.66;5089642;28;20077;-52
2021/03/05 08:02:03;;;;;;;11.90;7.38;;;;;;;24.92;13.32;93392.25;5089176;28;20028;-52
2021/03/05 08:04:55;;;;;;;16.90;11.30;;;;;;;25.63;14.16;93403.50;5089247;28;20028;-54
2021/03/05 08:07:23;;;;;;;9.63;7.10;;;;;;;26.44;12.88;93390.91;5082235;28;20093;-46
2021/03/05 08:09:48;;;;;;;13.25;7.85;;;;;;;25.42;14.66;93397.09;5068944;28;20028;-47
2021/03/05 08:12:28;;;;;;;7.88;6.07;;;;;;;26.68;13.11;93393.81;5067730;28;20036;-46
2021/03/05 08:15:06;;;;;;;8.23;6.35;;;;;;;27.37;11.13;93385.47;5069211;28;20033;-47
2021/03/05 08:17:42;;;;;;;7.50;5.88;;;;;;;26.96;11.23;93383.44;5069152;28;20028;-54
2021/03/05 08:20:09;;;;;;;6.88;5.30;;;;;;;26.71;10.85;93376.22;5069246;28;20074;-53
2021/03/05 08:23:01;;;;;;;7.78;3.97;;;;;;;27.43;10.57;93383.53;5068931;28;20442;-50
2021/03/05 08:25:34;;;;;;;8.32;5.57;;;;;;;27.33;11.15;93382.47;5068938;28;20025;-49
2021/03/05 08:28:04;;;;;;;10.18;5.32;;;;;;;27.50;10.52;93353.25;5069000;28;20105;-49
2021/03/05 08:30:29;;;;;;;5.45;4.10;;;;;;;27.84;9.64;93379.03;5083020;28;20034;-49
2021/03/05 08:33:01;;;;;;;17.00;15.30;;;;;;;28.12;9.43;93379.88;5069228;28;20029;-51
2021/03/05 08:35:29;;;;;;;5.68;3.72;;;;;;;28.18;8.92;93374.34;5068673;28;20028;-53
2021/03/05 08:38:08;;;;;;;3.63;3.08;;;;;;;27.82;9.00;93376.16;5068961;28;20052;-52
2021/03/05 08:40:38;;;;;;;7.57;3.63;;;;;;;28.41;8.74;93379.97;5087582;28;20028;-54
2021/03/05 08:43:09;;;;;;;6.70;3.88;;;;;;;28.26;8.69;93368.91;5088644;28;20111;-58
2021/03/05 08:45:40;;;;;;;5.38;3.13;;;;;;;28.65;9.04;93367.84;5088999;28;20028;-57
2021/03/05 08:48:06;;;;;;;6.82;3.38;;;;;;;29.17;8.87;93375.53;5089239;28;20028;-58
2021/03/05 08:50:34;;;;;;;3.25;2.95;;;;;;;29.46;7.93;93348.47;5088826;28;20527;-44
2021/03/05 08:53:18;;;;;;;3.83;3.42;;;;;;;30.09;8.16;93370.47;5088905;28;20028;-53
2021/03/05 08:55:45;;;;;;;6.22;4.47;;;;;;;29.99;7.81;93368.13;5088947;28;20663;-46
2021/03/05 08:58:16;;;;;;;5.03;3.50;;;;;;;29.82;7.70;93366.34;5088703;28;20020;-50
2021/03/05 09:00:43;;;;;;;4.30;3.20;;;;;;;29.44;8.11;93367.63;5088713;28;20017;-49
2021/03/05 09:03:13;;;;;;;3.60;3.17;;;;;;;29.06;7.80;93375.97;5077737;28;20047;-43
2021/03/05 09:05:47;;;;;;;8.15;5.80;;;;;;;29.70;7.92;93366.09;5078507;28;20031;-45
2021/03/05 09:08:14;;;;;;;7.05;4.50;;;;;;;30.46;7.58;93366.94;5077844;28;20029;-43
2021/03/05 09:10:44;;;;;;;5.00;3.42;;;;;;;29.35;8.28;93363.88;5071922;28;20103;-43
2021/03/05 09:13:10;;;;;;;7.18;3.65;;;;;;;30.04;7.67;93356.84;5082881;28;20025;-45
2021/03/05 09:15:42;;;;;;;6.57;4.20;;;;;;;30.28;6.84;93349.47;5086083;28;20035;-46
2021/03/05 09:18:09;;;;;;;4.40;3.30;;;;;;;29.54;7.62;93348.66;5091656;28;20500;-45
2021/03/05 09:20:36;;;;;;;4.77;3.73;;;;;;;29.30;8.22;93336.03;5092069;28;20019;-43
2021/03/05 09:23:22;;;;;;;5.05;3.00;;;;;;;30.04;8.55;93345.47;5091648;28;20081;-44
2021/03/05 09:25:52;;;;;;;5.53;4.32;;;;;;;30.07;7.83;93341.97;5091899;28;20024;-45
2021/03/05 09:28:19;;;;;;;4.28;3.63;;;;;;;30.27;7.61;93333.09;5091755;28;20683;-43
2021/03/05 09:30:49;;;;;;;3.65;3.25;;;;;;;30.13;7.44;93335.66;5090373;28;20029;-44
2021/03/05 09:33:14;;;;;;;6.28;3.80;;;;;;;30.16;7.50;93322.91;5091761;28;20582;-44
2021/03/05 09:36:00;;;;;;;5.95;4.85;;;;;;;30.04;7.11;93334.06;5091865;28;20049;-47
2021/03/05 09:38:26;;;;;;;4.43;3.70;;;;;;;30.10;7.49;93337.03;5091504;28;20721;-44
2021/03/05 09:40:51;;;;;;;4.85;3.65;;;;;;;29.98;7.71;93335.38;5091369;28;20119;-45
2021/03/05 09:43:17;;;;;;;5.75;3.80;;;;;;;29.93;7.36;93333.16;5079625;28;20420;-46
2021/03/05 09:45:52;;;;;;;7.45;3.42;;;;;;;29.32;8.20;93333.22;5085236;28;20065;-47
2021/03/05 09:48:31;;;;;;;7.38;3.63;;;;;;;29.58;7.14;93331.69;5090850;28;20036;-46
2021/03/05 09:51:05;;;;;;;5.90;4.65;;;;;;;30.56;7.26;93332.94;5091554;28;20031;-44
2021/03/05 09:53:34;;;;;;;5.35;3.97;;;;;;;30.57;6.92;93330.81;5091150;28;20020;-46
2021/03/05 09:56:07;;;;;;;9.18;3.78;;;;;;;29.98;7.39;93329.69;5091509;28;20047;-45
2021/03/05 09:58:33;;;;;;;5.22;3.63;;;;;;;29.83;7.60;93327.97;5091517;28;20039;-47
2021/03/05 10:00:59;;;;;;;5.25;4.20;;;;;;;30.19;7.08;93333.63;5091386;28;20107;-45
2021/03/05 10:03:25;;;;;;;4.18;3.60;;;;;;;29.79;7.09;93325.03;5091219;28;20110;-46
2021/03/05 10:05:51;;;;;;;5.97;4.10;;;;;;;30.04;7.23;93308.44;5090883;28;20020;-44
2021/03/05 10:08:28;;;;;;;5.03;3.88;;;;;;;30.23;7.42;93313.81;5076222;28;20024;-49
2021/03/05 10:11:04;;;;;;;3.78;3.33;;;;;;;30.84;7.60;93318.44;5071073;28;20032;-48
2021/03/05 10:13:48;;;;;;;10.57;4.00;;;;;;;30.59;7.00;93311.63;5070956;28;20063;-47
2021/03/05 10:16:32;;;;;;;5.70;5.15;;;;;;;29.72;7.35;93323.44;5070274;28;20020;-47
2021/03/05 10:18:59;;;;;;;7.35;3.25;;;;;;;30.29;6.28;93316.03;5070629;28;20509;-51
2021/03/05 10:21:25;;;;;;;8.32;4.32;;;;;;;30.40;6.70;93318.41;5070440;28;20108;-47
2021/03/05 10:23:51;;;;;;;5.28;3.40;;;;;;;30.35;6.07;93316.16;5070693;28;20024;-48
2021/03/05 10:26:27;;;;;;;7.60;3.55;;;;;;;30.64;6.90;93303.88;5071948;28;20020;-48
2021/03/05 10:28:59;;;;;;;9.68;3.20;;;;;;;30.09;7.10;93309.94;5077415;28;20036;-45
2021/03/05 10:31:46;;;;;;;7.80;5.70;;;;;;;29.16;6.61;93305.13;5087499;28;20085;-46
2021/03/05 10:34:38;;;;;;;9.80;7.25;;;;;;;30.15;7.12;93298.69;5076837;28;20040;-49
2021/03/05 10:37:04;;;;;;;3.80;3.25;;;;;;;30.06;6.44;93297.78;5065499;28;20036;-49
2021/03/05 10:39:34;;;;;;;7.47;2.97;;;;;;;29.60;7.41;93294.75;5070176;28;20127;-46
2021/03/05 10:42:02;;;;;;;5.10;3.00;;;;;;;28.53;7.91;93291.50;5069940;28;20028;-48
2021/03/05 10:44:29;;;;;;;3.67;3.03;;;;;;;29.29;7.13;93272.72;5070169;28;20112;-50
2021/03/05 10:46:57;;;;;;;4.95;2.35;;;;;;;30.40;6.97;93281.38;5070022;28;20028;-51
2021/03/05 10:49:22;;;;;;;7.07;4.40;;;;;;;29.54;7.42;93276.81;5070048;28;20500;-53
2021/03/05 10:51:48;;;;;;;12.93;4.03;;;;;;;28.83;7.88;93274.50;5069989;28;20028;-48
2021/03/05 10:54:13;;;;;;;8.73;4.93;;;;;;;28.33;8.40;93282.47;5069808;28;20024;-50
2021/03/05 10:56:39;;;;;;;3.83;3.13;;;;;;;28.44;8.48;93279.22;5069927;28;20109;-49
2021/03/05 10:59:05;;;;;;;3.67;2.40;;;;;;;28.44;9.32;93267.88;5069863;28;20028;-51
2021/03/05 11:01:30;;;;;;;4.47;2.90;;;;;;;28.86;7.65;93248.31;5069831;28;20024;-48
2021/03/05 11:03:56;;;;;;;4.65;3.50;;;;;;;29.15;6.91;93261.03;5073366;28;20024;-46
2021/03/05 11:06:21;;;;;;;5.18;2.92;;;;;;;29.18;8.10;93257.56;5069769;28;20036;-47
2021/03/05 11:08:47;;;;;;;4.05;2.80;;;;;;;29.60;6.98;93251.31;5084318;28;20518;-47
2021/03/05 11:11:12;;;;;;;3.58;2.53;;;;;;;29.98;7.16;93235.00;5089852;28;20081;-45
2021/03/05 11:13:38;;;;;;;5.70;3.78;;;;;;;29.29;8.46;93232.19;5089815;28;20077;-52
2021/03/05 11:16:04;;;;;;;4.03;2.67;;;;;;;29.42;6.73;93243.16;5089632;28;20023;-47
2021/03/05 11:18:29;;;;;;;15.55;4.57;;;;;;;29.75;7.08;93227.47;5089538;28;20020;-52
2021/03/05 11:20:55;;;;;;;5.18;3.72;;;;;;;29.34;8.59;93233.72;5089721;28;20107;-47
2021/03/05 11:23:20;;;;;;;4.43;2.70;;;;;;;29.97;8.17;93225.75;5089832;28;20066;-48
2021/03/05 11:25:46;;;;;;;4.75;3.35;;;;;;;28.93;8.15;93226.44;5089495;28;20110;-52
2021/03/05 11:28:13;;;;;;;6.80;3.92;;;;;;;29.27;7.05;93223.63;5087454;28;20024;-54
2021/03/05 11:30:39;;;;;;;7.10;4.17;;;;;;;28.62;7.75;93210.81;5069373;28;20032;-52
2021/03/05 11:33:05;;;;;;;4.70;3.85;;;;;;;28.84;7.32;93205.63;5069408;28;20059;-54